Route Details

Aircraft Information
Group: North America Fleet
Types: B738, B752, B762, B763
Route Data
Distance: 291nm
Duration: 1h 30m
Origin METAR: KCLT 010552Z 23003KT 3SM -RA BR BKN008 BKN021 OVC034 14/14 A3007 RMK RAB36 SLP180 P0002 60002 T01440139 10150 20133 58005
Dest. METAR: KCVG 010552Z 01005KT 10SM BKN110 M06/M12 A3031 RMK AO2 SLP272 60000 T10561117 11033 21056 53005
Freight Data
(for Feb 1, 2023)
Load Factor:
31%
Manifested Cargo: 39,708lbs
Financial History
Total Freight: 61,092lbs
Average Load: 0lbs/flt
Fuel Used: 6,345lbs
Avg. Fuel Used: 0lbs/flt
Fuel Expense: $3,363
Avg. Fuel Expense: $0
Avg. Fuel Cost: $0/lbs
Total Gross Income: $155,785
Pilot Pay: $239
Total Expenses: $33,954
Total Revenue: $118,239
Average Revenue: $0

Capitol Logistics 373




KCLT
Charlotte/Douglas International Airport
Charlotte, North Carolina
KCVG
Cincinnati/Northern Kentucky International Airport
Covington, Kentucky

Activity Log

Date Flight Route Aircraft Duration
01/17/2023 CPX373 JOJJO4 CUBIM JAKIE5 B763 0h 56m